New Orleans, Louisiana
Traffic Map
Current Weather Conditions
New Orleans, Louisiana
Clear
Clear
55°
Feels Like: 55°
Wind Chill: 55° Ceiling: Unl
Heat Index: 55° Visibility: 10mi
Dew Point: 45° Wind: 5mph
Humidity: 67% Direction: 310° (NW)
Pressure: 30.31in Gusts: 0mph
Raw Report DataKVSH 270835Z AUTO 31004KT 10SM CLR 13/07 A3031 RMK AO1
Traffic Incident Summary
Active as of:
Severity:
Category:
InformationThere was an issue retrieving the traffic information for this location. Please try a different location or try again shortly.
Advertisements
Track Severe Weather on mobile